메인 페이지
METAR-TAF:

METAR-TAF

공항 :

Opa-Locka Airport

마이애미, 플로리다, 미국

위도: 25-54-36N, 경도: 080-16-59W, 고도: 3m

현재 날씨관측

예보는 1 시간 0분 전, 14:53시(UTC)에 발표되었습니다.
남동8kt
온도 31°C
습도 59%
기압 1017 hPa
시정: 16.1km
맑음

METAR: KOPF 301453Z 13008KT 10SM CLR 31/22 A3004 RMK AO2 SLP174 T03060222 50005

시각: 11:53 (15:53 UTC)

예보

예보는 54분 전, 14:59시(UTC)에 발표되었습니다.
예보 대상 시간: 30일 15시부터 31일 12시까지 (UTC)
남동10kt
시정: 10km
고도 3000ft 상공 구름 보통
고도 5000ft 상공 구름 보통
고도 25000ft 상공 구름 많음
31일 0000시부터 (UTC)
여러 방향의 바람 6kt
시정: 10km
고도 2500ft 상공 구름 조금
고도 25000ft 상공 구름 보통

TAF: KOPF 301459Z 3015/3112 13010KT P6SM SCT030 SCT050 BKN250 FM310000 VRB06KT P6SM FEW025 SCT250

4,000개 이상의 공항 관측 자료 및 예보 (METAR 및 TAF 보고).

지도상에서 검색 가능한 기상관측소가 노란 점과 빨간 점으로 표시되어 있습니다.

기상관측소 명을 보려면 표시 위로 마우스를 이동하세요.

날씨 관측과 예보를 보려면 클릭하세요.

지도 변경 : 확대하려면 엑스 표시가 있는 녹색 버튼, 축소하려면 빼기 표시가 있는 녹색 버튼, 다음 페이지의 지도를 보려면 녹색 화살표를 클릭하세요.


METAR-TAF: